sensor_id;sensor_type;location;lat;lon;timestamp;P1;durP1;ratioP1;P2;durP2;ratioP2
79574;SDS011;69044;48.198;11.468;2023-11-21T00:01:22;2.58;;;1.30;;
79574;SDS011;69044;48.198;11.468;2023-11-21T00:03:49;2.35;;;1.23;;
79574;SDS011;69044;48.198;11.468;2023-11-21T00:06:20;2.90;;;1.58;;
79574;SDS011;69044;48.198;11.468;2023-11-21T00:08:48;3.47;;;1.45;;
79574;SDS011;69044;48.198;11.468;2023-11-21T00:11:15;2.45;;;1.17;;
79574;SDS011;69044;48.198;11.468;2023-11-21T00:13:43;4.80;;;1.30;;
79574;SDS011;69044;48.198;11.468;2023-11-21T00:16:11;3.70;;;1.30;;
79574;SDS011;69044;48.198;11.468;2023-11-21T00:18:38;6.78;;;1.40;;
79574;SDS011;69044;48.198;11.468;2023-11-21T00:21:08;1.80;;;1.15;;
79574;SDS011;69044;48.198;11.468;2023-11-21T00:23:38;1.52;;;1.02;;
79574;SDS011;69044;48.198;11.468;2023-11-21T00:26:06;1.70;;;1.13;;
79574;SDS011;69044;48.198;11.468;2023-11-21T00:31:01;3.28;;;1.20;;
79574;SDS011;69044;48.198;11.468;2023-11-21T00:33:28;1.80;;;1.00;;
79574;SDS011;69044;48.198;11.468;2023-11-21T00:35:55;2.90;;;1.58;;
79574;SDS011;69044;48.198;11.468;2023-11-21T00:38:22;2.53;;;1.70;;
79574;SDS011;69044;48.198;11.468;2023-11-21T00:40:49;3.55;;;1.13;;
79574;SDS011;69044;48.198;11.468;2023-11-21T00:43:20;1.67;;;1.20;;
79574;SDS011;69044;48.198;11.468;2023-11-21T00:45:47;1.23;;;1.08;;
79574;SDS011;69044;48.198;11.468;2023-11-21T00:48:14;1.83;;;1.13;;
79574;SDS011;69044;48.198;11.468;2023-11-21T00:50:42;4.65;;;1.35;;
79574;SDS011;69044;48.198;11.468;2023-11-21T00:53:09;1.52;;;0.90;;
79574;SDS011;69044;48.198;11.468;2023-11-21T00:55:37;1.45;;;1.00;;
79574;SDS011;69044;48.198;11.468;2023-11-21T00:58:05;2.03;;;1.10;;
79574;SDS011;69044;48.198;11.468;2023-11-21T01:00:34;2.20;;;1.10;;
79574;SDS011;69044;48.198;11.468;2023-11-21T01:03:01;2.15;;;1.10;;
79574;SDS011;69044;48.198;11.468;2023-11-21T01:05:29;2.25;;;1.05;;
79574;SDS011;69044;48.198;11.468;2023-11-21T01:07:56;2.17;;;0.90;;
79574;SDS011;69044;48.198;11.468;2023-11-21T01:10:23;1.50;;;0.93;;
79574;SDS011;69044;48.198;11.468;2023-11-21T01:12:50;0.80;;;0.80;;
79574;SDS011;69044;48.198;11.468;2023-11-21T01:15:17;2.55;;;1.05;;
79574;SDS011;69044;48.198;11.468;2023-11-21T01:17:47;1.20;;;0.98;;
79574;SDS011;69044;48.198;11.468;2023-11-21T01:20:14;2.65;;;1.15;;
79574;SDS011;69044;48.198;11.468;2023-11-21T01:22:41;1.10;;;1.00;;
79574;SDS011;69044;48.198;11.468;2023-11-21T01:25:08;1.95;;;1.23;;
79574;SDS011;69044;48.198;11.468;2023-11-21T01:27:36;2.45;;;1.08;;
79574;SDS011;69044;48.198;11.468;2023-11-21T01:30:04;2.63;;;1.10;;
79574;SDS011;69044;48.198;11.468;2023-11-21T01:32:34;2.53;;;1.23;;
79574;SDS011;69044;48.198;11.468;2023-11-21T01:35:04;1.95;;;1.10;;
79574;SDS011;69044;48.198;11.468;2023-11-21T01:37:32;2.58;;;1.17;;
79574;SDS011;69044;48.198;11.468;2023-11-21T01:39:59;3.47;;;1.30;;
79574;SDS011;69044;48.198;11.468;2023-11-21T01:42:27;2.60;;;1.50;;
79574;SDS011;69044;48.198;11.468;2023-11-21T01:44:55;2.38;;;1.15;;
79574;SDS011;69044;48.198;11.468;2023-11-21T01:47:22;1.40;;;1.02;;
79574;SDS011;69044;48.198;11.468;2023-11-21T01:49:52;1.40;;;1.00;;
79574;SDS011;69044;48.198;11.468;2023-11-21T01:52:21;1.70;;;1.13;;
79574;SDS011;69044;48.198;11.468;2023-11-21T01:57:15;1.58;;;1.00;;
79574;SDS011;69044;48.198;11.468;2023-11-21T01:59:43;1.67;;;1.02;;
79574;SDS011;69044;48.198;11.468;2023-11-21T02:02:10;2.00;;;1.02;;
79574;SDS011;69044;48.198;11.468;2023-11-21T02:04:38;2.22;;;1.20;;
79574;SDS011;69044;48.198;11.468;2023-11-21T02:07:05;2.80;;;1.15;;
79574;SDS011;69044;48.198;11.468;2023-11-21T02:09:34;1.52;;;1.02;;
79574;SDS011;69044;48.198;11.468;2023-11-21T02:12:04;1.90;;;1.20;;
79574;SDS011;69044;48.198;11.468;2023-11-21T02:14:31;2.15;;;1.33;;
79574;SDS011;69044;48.198;11.468;2023-11-21T02:16:59;2.40;;;1.00;;
79574;SDS011;69044;48.198;11.468;2023-11-21T02:19:26;2.80;;;1.20;;
79574;SDS011;69044;48.198;11.468;2023-11-21T02:21:56;3.40;;;1.20;;
79574;SDS011;69044;48.198;11.468;2023-11-21T02:24:27;1.50;;;0.93;;
79574;SDS011;69044;48.198;11.468;2023-11-21T02:26:55;2.10;;;1.00;;
79574;SDS011;69044;48.198;11.468;2023-11-21T02:29:22;2.85;;;1.00;;
79574;SDS011;69044;48.198;11.468;2023-11-21T02:31:53;5.07;;;1.10;;
79574;SDS011;69044;48.198;11.468;2023-11-21T02:34:21;1.48;;;0.90;;
79574;SDS011;69044;48.198;11.468;2023-11-21T02:36:50;3.88;;;1.73;;
79574;SDS011;69044;48.198;11.468;2023-11-21T02:39:17;1.15;;;0.90;;
79574;SDS011;69044;48.198;11.468;2023-11-21T02:41:49;2.17;;;1.00;;
79574;SDS011;69044;48.198;11.468;2023-11-21T02:44:16;1.70;;;1.02;;
79574;SDS011;69044;48.198;11.468;2023-11-21T02:46:43;1.17;;;0.77;;
79574;SDS011;69044;48.198;11.468;2023-11-21T02:49:10;1.13;;;0.90;;
79574;SDS011;69044;48.198;11.468;2023-11-21T02:51:37;1.02;;;0.73;;
79574;SDS011;69044;48.198;11.468;2023-11-21T02:54:05;2.33;;;0.95;;
79574;SDS011;69044;48.198;11.468;2023-11-21T02:56:34;0.95;;;0.90;;
79574;SDS011;69044;48.198;11.468;2023-11-21T02:59:04;1.27;;;0.85;;
79574;SDS011;69044;48.198;11.468;2023-11-21T03:01:31;1.23;;;0.93;;
79574;SDS011;69044;48.198;11.468;2023-11-21T03:03:58;1.23;;;0.82;;
79574;SDS011;69044;48.198;11.468;2023-11-21T03:06:25;2.85;;;1.20;;
79574;SDS011;69044;48.198;11.468;2023-11-21T03:08:54;2.63;;;1.10;;
79574;SDS011;69044;48.198;11.468;2023-11-21T03:11:22;2.45;;;1.10;;
79574;SDS011;69044;48.198;11.468;2023-11-21T03:13:49;3.35;;;1.02;;
79574;SDS011;69044;48.198;11.468;2023-11-21T03:16:18;1.50;;;0.88;;
79574;SDS011;69044;48.198;11.468;2023-11-21T03:18:46;2.78;;;1.20;;
79574;SDS011;69044;48.198;11.468;2023-11-21T03:21:13;2.75;;;0.77;;
79574;SDS011;69044;48.198;11.468;2023-11-21T03:23:41;1.98;;;0.93;;
79574;SDS011;69044;48.198;11.468;2023-11-21T03:26:11;1.65;;;1.02;;
79574;SDS011;69044;48.198;11.468;2023-11-21T03:28:38;1.95;;;1.05;;
79574;SDS011;69044;48.198;11.468;2023-11-21T03:31:05;2.17;;;0.80;;
79574;SDS011;69044;48.198;11.468;2023-11-21T03:36:03;2.20;;;1.02;;
79574;SDS011;69044;48.198;11.468;2023-11-21T03:38:30;1.30;;;1.13;;
79574;SDS011;69044;48.198;11.468;2023-11-21T03:40:57;1.20;;;0.90;;
79574;SDS011;69044;48.198;11.468;2023-11-21T03:43:28;4.28;;;1.20;;
79574;SDS011;69044;48.198;11.468;2023-11-21T03:45:55;1.27;;;1.05;;
79574;SDS011;69044;48.198;11.468;2023-11-21T03:48:22;4.13;;;1.25;;
79574;SDS011;69044;48.198;11.468;2023-11-21T03:50:51;1.48;;;0.90;;
79574;SDS011;69044;48.198;11.468;2023-11-21T03:53:18;2.72;;;1.00;;
79574;SDS011;69044;48.198;11.468;2023-11-21T03:55:45;1.77;;;1.10;;
79574;SDS011;69044;48.198;11.468;2023-11-21T03:58:12;1.67;;;1.10;;
79574;SDS011;69044;48.198;11.468;2023-11-21T04:00:39;2.45;;;1.23;;
79574;SDS011;69044;48.198;11.468;2023-11-21T04:03:07;2.28;;;1.02;;
79574;SDS011;69044;48.198;11.468;2023-11-21T04:05:34;2.05;;;1.02;;
79574;SDS011;69044;48.198;11.468;2023-11-21T04:08:03;1.45;;;1.00;;
79574;SDS011;69044;48.198;11.468;2023-11-21T04:10:30;2.05;;;0.88;;
79574;SDS011;69044;48.198;11.468;2023-11-21T04:12:57;2.00;;;1.08;;
79574;SDS011;69044;48.198;11.468;2023-11-21T04:15:26;1.67;;;1.08;;
79574;SDS011;69044;48.198;11.468;2023-11-21T04:17:53;1.50;;;0.98;;
79574;SDS011;69044;48.198;11.468;2023-11-21T04:20:20;3.10;;;1.23;;
79574;SDS011;69044;48.198;11.468;2023-11-21T04:22:49;3.05;;;1.30;;
79574;SDS011;69044;48.198;11.468;2023-11-21T04:25:18;3.63;;;1.20;;
79574;SDS011;69044;48.198;11.468;2023-11-21T04:27:45;3.03;;;1.10;;
79574;SDS011;69044;48.198;11.468;2023-11-21T04:30:12;1.80;;;1.10;;
79574;SDS011;69044;48.198;11.468;2023-11-21T04:32:40;2.17;;;1.20;;
79574;SDS011;69044;48.198;11.468;2023-11-21T04:35:08;2.63;;;1.30;;
79574;SDS011;69044;48.198;11.468;2023-11-21T04:37:35;2.40;;;1.33;;
79574;SDS011;69044;48.198;11.468;2023-11-21T04:40:03;4.30;;;2.20;;
79574;SDS011;69044;48.198;11.468;2023-11-21T04:42:34;9.75;;;4.07;;
79574;SDS011;69044;48.198;11.468;2023-11-21T04:45:02;7.82;;;3.10;;
79574;SDS011;69044;48.198;11.468;2023-11-21T04:47:33;11.35;;;3.97;;
79574;SDS011;69044;48.198;11.468;2023-11-21T04:50:00;18.60;;;5.05;;
79574;SDS011;69044;48.198;11.468;2023-11-21T04:52:27;6.25;;;2.70;;
79574;SDS011;69044;48.198;11.468;2023-11-21T04:54:54;4.22;;;1.90;;
79574;SDS011;69044;48.198;11.468;2023-11-21T04:57:24;3.95;;;1.17;;
79574;SDS011;69044;48.198;11.468;2023-11-21T04:59:51;1.98;;;1.10;;
79574;SDS011;69044;48.198;11.468;2023-11-21T05:02:18;1.73;;;1.10;;
79574;SDS011;69044;48.198;11.468;2023-11-21T05:04:47;2.50;;;1.10;;
79574;SDS011;69044;48.198;11.468;2023-11-21T05:07:14;1.38;;;0.80;;
79574;SDS011;69044;48.198;11.468;2023-11-21T05:09:42;2.50;;;1.13;;
79574;SDS011;69044;48.198;11.468;2023-11-21T05:12:09;1.33;;;0.90;;
79574;SDS011;69044;48.198;11.468;2023-11-21T05:14:37;1.42;;;0.80;;
79574;SDS011;69044;48.198;11.468;2023-11-21T05:17:06;2.08;;;0.88;;
79574;SDS011;69044;48.198;11.468;2023-11-21T05:19:33;1.33;;;0.80;;
79574;SDS011;69044;48.198;11.468;2023-11-21T05:22:01;1.33;;;0.70;;
79574;SDS011;69044;48.198;11.468;2023-11-21T05:24:29;1.02;;;0.80;;
79574;SDS011;69044;48.198;11.468;2023-11-21T05:26:56;0.82;;;0.82;;
79574;SDS011;69044;48.198;11.468;2023-11-21T05:29:23;1.00;;;0.90;;
79574;SDS011;69044;48.198;11.468;2023-11-21T05:31:51;2.47;;;1.10;;
79574;SDS011;69044;48.198;11.468;2023-11-21T05:34:20;1.40;;;0.88;;
79574;SDS011;69044;48.198;11.468;2023-11-21T05:36:49;2.85;;;0.80;;
79574;SDS011;69044;48.198;11.468;2023-11-21T05:39:17;1.23;;;0.85;;
79574;SDS011;69044;48.198;11.468;2023-11-21T05:41:45;0.77;;;0.77;;
79574;SDS011;69044;48.198;11.468;2023-11-21T05:44:12;1.23;;;0.98;;
79574;SDS011;69044;48.198;11.468;2023-11-21T05:46:40;2.33;;;0.85;;
79574;SDS011;69044;48.198;11.468;2023-11-21T05:49:09;1.88;;;1.00;;
79574;SDS011;69044;48.198;11.468;2023-11-21T05:51:37;1.50;;;0.90;;
79574;SDS011;69044;48.198;11.468;2023-11-21T05:56:32;1.35;;;1.00;;
79574;SDS011;69044;48.198;11.468;2023-11-21T05:58:59;1.98;;;1.17;;
79574;SDS011;69044;48.198;11.468;2023-11-21T06:01:26;1.38;;;0.90;;
79574;SDS011;69044;48.198;11.468;2023-11-21T06:03:54;1.48;;;1.00;;
79574;SDS011;69044;48.198;11.468;2023-11-21T06:06:21;1.65;;;1.08;;
79574;SDS011;69044;48.198;11.468;2023-11-21T06:08:51;1.35;;;1.02;;
79574;SDS011;69044;48.198;11.468;2023-11-21T06:11:18;1.65;;;1.02;;
79574;SDS011;69044;48.198;11.468;2023-11-21T06:13:45;2.92;;;1.00;;
79574;SDS011;69044;48.198;11.468;2023-11-21T06:16:13;3.75;;;1.08;;
79574;SDS011;69044;48.198;11.468;2023-11-21T06:18:42;1.13;;;0.85;;
79574;SDS011;69044;48.198;11.468;2023-11-21T06:21:10;2.72;;;1.55;;
79574;SDS011;69044;48.198;11.468;2023-11-21T06:23:37;7.38;;;2.72;;
79574;SDS011;69044;48.198;11.468;2023-11-21T06:26:06;3.03;;;1.25;;
79574;SDS011;69044;48.198;11.468;2023-11-21T06:28:34;3.00;;;1.42;;
79574;SDS011;69044;48.198;11.468;2023-11-21T06:31:02;2.13;;;1.33;;
79574;SDS011;69044;48.198;11.468;2023-11-21T06:33:30;2.72;;;1.48;;
79574;SDS011;69044;48.198;11.468;2023-11-21T06:35:57;4.53;;;1.60;;
79574;SDS011;69044;48.198;11.468;2023-11-21T06:38:25;3.22;;;1.17;;
79574;SDS011;69044;48.198;11.468;2023-11-21T06:40:55;2.28;;;1.00;;
79574;SDS011;69044;48.198;11.468;2023-11-21T06:43:25;2.60;;;1.15;;
79574;SDS011;69044;48.198;11.468;2023-11-21T06:45:52;2.38;;;1.20;;
79574;SDS011;69044;48.198;11.468;2023-11-21T06:48:20;1.42;;;0.80;;
79574;SDS011;69044;48.198;11.468;2023-11-21T06:50:47;1.00;;;0.90;;
79574;SDS011;69044;48.198;11.468;2023-11-21T06:53:14;1.83;;;0.85;;
79574;SDS011;69044;48.198;11.468;2023-11-21T06:55:41;3.60;;;1.10;;
79574;SDS011;69044;48.198;11.468;2023-11-21T06:58:08;2.10;;;1.00;;
79574;SDS011;69044;48.198;11.468;2023-11-21T07:00:37;1.85;;;0.98;;
79574;SDS011;69044;48.198;11.468;2023-11-21T07:03:04;1.45;;;0.82;;
79574;SDS011;69044;48.198;11.468;2023-11-21T07:05:31;2.67;;;1.23;;
79574;SDS011;69044;48.198;11.468;2023-11-21T07:07:58;2.78;;;1.00;;
79574;SDS011;69044;48.198;11.468;2023-11-21T07:10:30;0.98;;;0.80;;
79574;SDS011;69044;48.198;11.468;2023-11-21T07:12:57;2.00;;;1.20;;
79574;SDS011;69044;48.198;11.468;2023-11-21T07:15:24;1.40;;;0.90;;
79574;SDS011;69044;48.198;11.468;2023-11-21T07:17:53;1.75;;;1.10;;
79574;SDS011;69044;48.198;11.468;2023-11-21T07:20:21;2.53;;;1.02;;
79574;SDS011;69044;48.198;11.468;2023-11-21T07:22:49;1.63;;;0.95;;
79574;SDS011;69044;48.198;11.468;2023-11-21T07:25:16;1.60;;;1.05;;
79574;SDS011;69044;48.198;11.468;2023-11-21T07:27:43;1.90;;;0.93;;
79574;SDS011;69044;48.198;11.468;2023-11-21T07:30:11;1.63;;;1.23;;
79574;SDS011;69044;48.198;11.468;2023-11-21T07:32:39;1.42;;;0.80;;
79574;SDS011;69044;48.198;11.468;2023-11-21T07:35:08;1.92;;;1.00;;
79574;SDS011;69044;48.198;11.468;2023-11-21T07:37:35;2.45;;;1.23;;
79574;SDS011;69044;48.198;11.468;2023-11-21T07:40:03;1.95;;;1.15;;
79574;SDS011;69044;48.198;11.468;2023-11-21T07:42:31;2.40;;;1.35;;
79574;SDS011;69044;48.198;11.468;2023-11-21T07:44:59;2.40;;;1.30;;
79574;SDS011;69044;48.198;11.468;2023-11-21T07:47:28;1.42;;;0.93;;
79574;SDS011;69044;48.198;11.468;2023-11-21T07:49:55;1.65;;;1.10;;
79574;SDS011;69044;48.198;11.468;2023-11-21T07:52:24;2.15;;;1.00;;
79574;SDS011;69044;48.198;11.468;2023-11-21T07:54:51;1.17;;;0.93;;
79574;SDS011;69044;48.198;11.468;2023-11-21T07:57:18;0.95;;;0.80;;
79574;SDS011;69044;48.198;11.468;2023-11-21T07:59:45;1.40;;;1.10;;
79574;SDS011;69044;48.198;11.468;2023-11-21T08:02:12;2.47;;;1.00;;
79574;SDS011;69044;48.198;11.468;2023-11-21T08:04:41;3.38;;;0.80;;
79574;SDS011;69044;48.198;11.468;2023-11-21T08:07:09;2.03;;;1.13;;
79574;SDS011;69044;48.198;11.468;2023-11-21T08:09:38;1.45;;;1.10;;
79574;SDS011;69044;48.198;11.468;2023-11-21T08:12:05;3.63;;;1.70;;
79574;SDS011;69044;48.198;11.468;2023-11-21T08:14:33;4.05;;;1.90;;
79574;SDS011;69044;48.198;11.468;2023-11-21T08:17:04;3.42;;;1.90;;
79574;SDS011;69044;48.198;11.468;2023-11-21T08:19:31;5.97;;;2.72;;
79574;SDS011;69044;48.198;11.468;2023-11-21T08:21:59;4.47;;;2.08;;
79574;SDS011;69044;48.198;11.468;2023-11-21T08:24:26;6.25;;;2.63;;
79574;SDS011;69044;48.198;11.468;2023-11-21T08:26:55;3.67;;;1.60;;
79574;SDS011;69044;48.198;11.468;2023-11-21T08:29:22;4.43;;;2.50;;
79574;SDS011;69044;48.198;11.468;2023-11-21T08:31:49;2.67;;;1.50;;
79574;SDS011;69044;48.198;11.468;2023-11-21T08:34:16;5.78;;;3.00;;
79574;SDS011;69044;48.198;11.468;2023-11-21T08:36:44;2.70;;;1.60;;
79574;SDS011;69044;48.198;11.468;2023-11-21T08:39:11;4.38;;;2.30;;
79574;SDS011;69044;48.198;11.468;2023-11-21T08:41:38;3.65;;;1.63;;
79574;SDS011;69044;48.198;11.468;2023-11-21T08:44:08;3.22;;;1.40;;
79574;SDS011;69044;48.198;11.468;2023-11-21T08:46:36;3.75;;;1.40;;
79574;SDS011;69044;48.198;11.468;2023-11-21T08:49:05;1.58;;;1.10;;
79574;SDS011;69044;48.198;11.468;2023-11-21T08:51:32;2.30;;;1.20;;
79574;SDS011;69044;48.198;11.468;2023-11-21T08:53:59;1.30;;;1.15;;
79574;SDS011;69044;48.198;11.468;2023-11-21T08:56:30;2.47;;;1.33;;
79574;SDS011;69044;48.198;11.468;2023-11-21T08:58:57;4.38;;;1.55;;
79574;SDS011;69044;48.198;11.468;2023-11-21T09:01:27;2.85;;;1.20;;
79574;SDS011;69044;48.198;11.468;2023-11-21T09:03:56;3.58;;;1.25;;
79574;SDS011;69044;48.198;11.468;2023-11-21T09:06:24;2.03;;;1.30;;
79574;SDS011;69044;48.198;11.468;2023-11-21T09:08:51;3.95;;;1.40;;
79574;SDS011;69044;48.198;11.468;2023-11-21T09:11:18;3.40;;;1.30;;
79574;SDS011;69044;48.198;11.468;2023-11-21T09:13:45;2.45;;;1.35;;
79574;SDS011;69044;48.198;11.468;2023-11-21T09:16:13;3.00;;;1.50;;
79574;SDS011;69044;48.198;11.468;2023-11-21T09:18:43;2.10;;;1.40;;
79574;SDS011;69044;48.198;11.468;2023-11-21T09:21:11;3.88;;;1.80;;
79574;SDS011;69044;48.198;11.468;2023-11-21T09:23:38;2.67;;;1.40;;
79574;SDS011;69044;48.198;11.468;2023-11-21T09:26:05;4.03;;;1.80;;
79574;SDS011;69044;48.198;11.468;2023-11-21T09:28:33;3.13;;;1.67;;
79574;SDS011;69044;48.198;11.468;2023-11-21T09:31:00;2.30;;;1.33;;
79574;SDS011;69044;48.198;11.468;2023-11-21T09:33:29;2.40;;;1.30;;
79574;SDS011;69044;48.198;11.468;2023-11-21T09:35:58;6.35;;;2.05;;
79574;SDS011;69044;48.198;11.468;2023-11-21T09:38:25;1.58;;;1.05;;
79574;SDS011;69044;48.198;11.468;2023-11-21T09:40:54;2.90;;;1.42;;
79574;SDS011;69044;48.198;11.468;2023-11-21T09:43:24;2.45;;;1.52;;
79574;SDS011;69044;48.198;11.468;2023-11-21T09:45:54;2.65;;;1.55;;
79574;SDS011;69044;48.198;11.468;2023-11-21T09:48:26;2.70;;;1.42;;
79574;SDS011;69044;48.198;11.468;2023-11-21T09:50:53;1.92;;;1.15;;
79574;SDS011;69044;48.198;11.468;2023-11-21T09:53:22;2.45;;;1.48;;
79574;SDS011;69044;48.198;11.468;2023-11-21T09:55:51;1.65;;;1.17;;
79574;SDS011;69044;48.198;11.468;2023-11-21T09:58:19;3.13;;;1.30;;
79574;SDS011;69044;48.198;11.468;2023-11-21T10:00:49;3.33;;;1.45;;
79574;SDS011;69044;48.198;11.468;2023-11-21T10:03:19;2.10;;;1.30;;
79574;SDS011;69044;48.198;11.468;2023-11-21T10:05:46;3.10;;;1.33;;
79574;SDS011;69044;48.198;11.468;2023-11-21T10:08:15;1.83;;;1.23;;
79574;SDS011;69044;48.198;11.468;2023-11-21T10:10:45;2.33;;;1.13;;
79574;SDS011;69044;48.198;11.468;2023-11-21T10:13:13;2.10;;;1.65;;
79574;SDS011;69044;48.198;11.468;2023-11-21T10:15:42;2.92;;;1.25;;
79574;SDS011;69044;48.198;11.468;2023-11-21T10:18:14;1.60;;;0.98;;
79574;SDS011;69044;48.198;11.468;2023-11-21T10:20:42;2.33;;;1.23;;
79574;SDS011;69044;48.198;11.468;2023-11-21T10:23:09;2.53;;;1.15;;
79574;SDS011;69044;48.198;11.468;2023-11-21T10:25:37;2.13;;;1.08;;
79574;SDS011;69044;48.198;11.468;2023-11-21T10:28:05;1.80;;;1.30;;
79574;SDS011;69044;48.198;11.468;2023-11-21T10:30:33;2.25;;;1.20;;
79574;SDS011;69044;48.198;11.468;2023-11-21T10:33:02;1.90;;;1.25;;
79574;SDS011;69044;48.198;11.468;2023-11-21T10:35:38;3.03;;;1.42;;
79574;SDS011;69044;48.198;11.468;2023-11-21T10:38:06;4.25;;;1.15;;
79574;SDS011;69044;48.198;11.468;2023-11-21T10:40:37;4.47;;;1.38;;
79574;SDS011;69044;48.198;11.468;2023-11-21T10:43:08;5.13;;;1.33;;
79574;SDS011;69044;48.198;11.468;2023-11-21T10:45:36;3.03;;;1.60;;
79574;SDS011;69044;48.198;11.468;2023-11-21T10:48:05;3.22;;;1.30;;
79574;SDS011;69044;48.198;11.468;2023-11-21T10:50:32;2.08;;;1.23;;
79574;SDS011;69044;48.198;11.468;2023-11-21T10:53:01;1.67;;;1.10;;
79574;SDS011;69044;48.198;11.468;2023-11-21T10:55:29;1.73;;;1.40;;
79574;SDS011;69044;48.198;11.468;2023-11-21T10:57:58;2.67;;;1.20;;
79574;SDS011;69044;48.198;11.468;2023-11-21T11:00:27;2.35;;;1.30;;
79574;SDS011;69044;48.198;11.468;2023-11-21T11:02:54;1.90;;;1.13;;
79574;SDS011;69044;48.198;11.468;2023-11-21T11:05:22;1.98;;;1.20;;
79574;SDS011;69044;48.198;11.468;2023-11-21T11:07:52;2.70;;;1.15;;
79574;SDS011;69044;48.198;11.468;2023-11-21T11:10:27;2.60;;;1.08;;
79574;SDS011;69044;48.198;11.468;2023-11-21T11:12:55;1.52;;;1.10;;
79574;SDS011;69044;48.198;11.468;2023-11-21T11:15:23;2.00;;;1.00;;
79574;SDS011;69044;48.198;11.468;2023-11-21T11:17:52;3.70;;;1.20;;
79574;SDS011;69044;48.198;11.468;2023-11-21T11:20:24;1.48;;;1.10;;
79574;SDS011;69044;48.198;11.468;2023-11-21T11:22:57;1.58;;;0.95;;
79574;SDS011;69044;48.198;11.468;2023-11-21T11:25:38;1.42;;;1.23;;
79574;SDS011;69044;48.198;11.468;2023-11-21T11:28:15;2.45;;;1.10;;
79574;SDS011;69044;48.198;11.468;2023-11-21T11:30:48;1.80;;;1.20;;
79574;SDS011;69044;48.198;11.468;2023-11-21T11:33:24;1.67;;;1.02;;
79574;SDS011;69044;48.198;11.468;2023-11-21T11:35:57;2.05;;;1.00;;
79574;SDS011;69044;48.198;11.468;2023-11-21T11:38:33;2.63;;;1.15;;
79574;SDS011;69044;48.198;11.468;2023-11-21T11:41:02;1.92;;;1.20;;
79574;SDS011;69044;48.198;11.468;2023-11-21T11:43:30;3.67;;;1.23;;
79574;SDS011;69044;48.198;11.468;2023-11-21T11:45:58;1.65;;;0.95;;
79574;SDS011;69044;48.198;11.468;2023-11-21T11:48:30;1.60;;;1.02;;
79574;SDS011;69044;48.198;11.468;2023-11-21T11:51:04;6.22;;;2.10;;
79574;SDS011;69044;48.198;11.468;2023-11-21T11:53:37;4.65;;;1.63;;
79574;SDS011;69044;48.198;11.468;2023-11-21T11:56:20;3.67;;;1.40;;
79574;SDS011;69044;48.198;11.468;2023-11-21T11:58:49;2.00;;;1.13;;
79574;SDS011;69044;48.198;11.468;2023-11-21T12:01:18;1.80;;;1.10;;
79574;SDS011;69044;48.198;11.468;2023-11-21T12:06:50;1.42;;;1.02;;
79574;SDS011;69044;48.198;11.468;2023-11-21T12:09:18;1.77;;;1.20;;
79574;SDS011;69044;48.198;11.468;2023-11-21T12:11:47;1.58;;;1.15;;
79574;SDS011;69044;48.198;11.468;2023-11-21T12:16:43;2.40;;;1.17;;
79574;SDS011;69044;48.198;11.468;2023-11-21T12:19:11;3.17;;;1.80;;
79574;SDS011;69044;48.198;11.468;2023-11-21T12:21:38;2.40;;;1.33;;
79574;SDS011;69044;48.198;11.468;2023-11-21T12:24:08;1.60;;;1.23;;
79574;SDS011;69044;48.198;11.468;2023-11-21T12:26:35;2.88;;;1.42;;
79574;SDS011;69044;48.198;11.468;2023-11-21T12:29:02;2.13;;;1.38;;
79574;SDS011;69044;48.198;11.468;2023-11-21T12:31:33;2.95;;;1.60;;
79574;SDS011;69044;48.198;11.468;2023-11-21T12:34:00;2.65;;;1.50;;
79574;SDS011;69044;48.198;11.468;2023-11-21T12:36:28;2.55;;;1.63;;
79574;SDS011;69044;48.198;11.468;2023-11-21T12:38:56;3.38;;;1.55;;
79574;SDS011;69044;48.198;11.468;2023-11-21T12:41:24;1.80;;;1.10;;
79574;SDS011;69044;48.198;11.468;2023-11-21T12:43:51;3.10;;;1.60;;
79574;SDS011;69044;48.198;11.468;2023-11-21T12:46:18;2.70;;;1.33;;
79574;SDS011;69044;48.198;11.468;2023-11-21T12:48:46;3.38;;;1.70;;
79574;SDS011;69044;48.198;11.468;2023-11-21T12:51:13;2.53;;;1.25;;
79574;SDS011;69044;48.198;11.468;2023-11-21T12:53:41;2.50;;;1.33;;
79574;SDS011;69044;48.198;11.468;2023-11-21T12:56:09;2.75;;;1.23;;
79574;SDS011;69044;48.198;11.468;2023-11-21T12:58:39;4.55;;;2.33;;
79574;SDS011;69044;48.198;11.468;2023-11-21T13:01:07;2.83;;;1.70;;
79574;SDS011;69044;48.198;11.468;2023-11-21T13:03:37;6.70;;;3.60;;
79574;SDS011;69044;48.198;11.468;2023-11-21T13:06:06;5.28;;;2.10;;
79574;SDS011;69044;48.198;11.468;2023-11-21T13:08:34;1.10;;;1.00;;
79574;SDS011;69044;48.198;11.468;2023-11-21T13:11:05;3.22;;;1.40;;
79574;SDS011;69044;48.198;11.468;2023-11-21T13:13:32;4.55;;;2.03;;
79574;SDS011;69044;48.198;11.468;2023-11-21T13:16:01;5.60;;;2.88;;
79574;SDS011;69044;48.198;11.468;2023-11-21T13:18:30;4.03;;;1.83;;
79574;SDS011;69044;48.198;11.468;2023-11-21T13:20:59;4.05;;;1.90;;
79574;SDS011;69044;48.198;11.468;2023-11-21T13:23:28;1.98;;;1.23;;
79574;SDS011;69044;48.198;11.468;2023-11-21T13:25:55;1.42;;;1.23;;
79574;SDS011;69044;48.198;11.468;2023-11-21T13:28:23;2.10;;;1.08;;
79574;SDS011;69044;48.198;11.468;2023-11-21T13:30:57;1.75;;;1.13;;
79574;SDS011;69044;48.198;11.468;2023-11-21T13:33:31;2.35;;;1.20;;
79574;SDS011;69044;48.198;11.468;2023-11-21T13:35:59;1.92;;;1.25;;
79574;SDS011;69044;48.198;11.468;2023-11-21T13:38:27;1.92;;;1.20;;
79574;SDS011;69044;48.198;11.468;2023-11-21T13:40:58;3.25;;;1.48;;
79574;SDS011;69044;48.198;11.468;2023-11-21T13:43:26;5.32;;;1.90;;
79574;SDS011;69044;48.198;11.468;2023-11-21T13:48:25;4.25;;;1.70;;
79574;SDS011;69044;48.198;11.468;2023-11-21T13:50:59;3.28;;;1.98;;
79574;SDS011;69044;48.198;11.468;2023-11-21T13:53:34;3.30;;;2.00;;
79574;SDS011;69044;48.198;11.468;2023-11-21T13:56:04;2.78;;;1.67;;
79574;SDS011;69044;48.198;11.468;2023-11-21T13:58:31;1.50;;;1.10;;
79574;SDS011;69044;48.198;11.468;2023-11-21T14:01:07;2.03;;;0.93;;
79574;SDS011;69044;48.198;11.468;2023-11-21T14:03:50;1.15;;;0.80;;
79574;SDS011;69044;48.198;11.468;2023-11-21T14:06:25;1.50;;;0.90;;
79574;SDS011;69044;48.198;11.468;2023-11-21T14:09:00;1.17;;;0.95;;
79574;SDS011;69044;48.198;11.468;2023-11-21T14:11:31;1.63;;;0.93;;
79574;SDS011;69044;48.198;11.468;2023-11-21T14:13:58;2.38;;;1.00;;
79574;SDS011;69044;48.198;11.468;2023-11-21T14:16:26;1.45;;;0.90;;
79574;SDS011;69044;48.198;11.468;2023-11-21T14:18:53;1.20;;;0.90;;
79574;SDS011;69044;48.198;11.468;2023-11-21T14:21:28;1.60;;;1.20;;
79574;SDS011;69044;48.198;11.468;2023-11-21T14:23:55;1.70;;;1.10;;
79574;SDS011;69044;48.198;11.468;2023-11-21T14:26:22;3.08;;;1.48;;
79574;SDS011;69044;48.198;11.468;2023-11-21T14:28:51;1.95;;;1.20;;
79574;SDS011;69044;48.198;11.468;2023-11-21T14:31:19;2.40;;;1.27;;
79574;SDS011;69044;48.198;11.468;2023-11-21T14:33:48;3.55;;;2.00;;
79574;SDS011;69044;48.198;11.468;2023-11-21T14:36:15;3.05;;;1.83;;
79574;SDS011;69044;48.198;11.468;2023-11-21T14:38:44;7.50;;;3.75;;
79574;SDS011;69044;48.198;11.468;2023-11-21T14:41:11;6.25;;;3.35;;
79574;SDS011;69044;48.198;11.468;2023-11-21T14:46:07;5.13;;;2.30;;
79574;SDS011;69044;48.198;11.468;2023-11-21T14:48:38;4.60;;;2.40;;
79574;SDS011;69044;48.198;11.468;2023-11-21T14:51:08;3.95;;;2.17;;
79574;SDS011;69044;48.198;11.468;2023-11-21T14:53:58;4.55;;;2.60;;
79574;SDS011;69044;48.198;11.468;2023-11-21T14:56:32;7.35;;;2.80;;
79574;SDS011;69044;48.198;11.468;2023-11-21T14:59:00;4.03;;;2.42;;
79574;SDS011;69044;48.198;11.468;2023-11-21T15:01:34;3.00;;;1.85;;